This is the latest recevied weather packets stored in our database for station/object DB2AG-13. If no packets are shown the sender has not sent any weather packets the latest 10 day(s).
| Time | Temp. | Humidity | Pressure | Rain* | Wind** | Luminosity | Snow |
|---|---|---|---|---|---|---|---|
| 1788157839 | 18.89° C | 62% | 1012.9 hPa | - | - | - | - |
| 1788157294 | 20° C | 61% | 1012.8 hPa | - | - | - | - |
| 1788156763 | 19.44° C | 65% | 1012.7 hPa | - | - | - | - |
| 1788156220 | 17.78° C | 68% | 1012.5 hPa | - | - | - | - |
| 1788155678 | 16.67° C | 69% | 1012.7 hPa | - | - | - | - |
| 1788155137 | 16.67° C | 69% | 1012.5 hPa | - | - | - | - |
| 1788154593 | 16.67° C | 68% | 1012.4 hPa | - | - | - | - |
| 1788154053 | 16.67° C | 68% | 1012.4 hPa | - | - | - | - |
| 1788153510 | 16.67° C | 68% | 1012.4 hPa | - | - | - | - |
| 1788152969 | 16.67° C | 68% | 1012.5 hPa | - | - | - | - |
| 1788151893 | 16.67° C | 67% | 1012.3 hPa | - | - | - | - |
| 1788151352 | 16.67° C | 67% | 1012.2 hPa | - | - | - | - |
| 1788150810 | 16.67° C | 68% | 1012.2 hPa | - | - | - | - |
| 1788149728 | 16.11° C | 68% | 1012.1 hPa | - | - | - | - |
| 1788149188 | 16.11° C | 68% | 1012.2 hPa | - | - | - | - |
| 1788148644 | 16.11° C | 68% | 1012 hPa | - | - | - | - |
| 1788148102 | 16.11° C | 68% | 1012.1 hPa | - | - | - | - |
| 1788147561 | 16.11° C | 68% | 1012.2 hPa | - | - | - | - |
| 1788145932 | 16.67° C | 65% | 1012.4 hPa | - | - | - | - |
| 1788145390 | 17.22° C | 63% | 1012.4 hPa | - | - | - | - |
| 1788144845 | 17.22° C | 62% | 1012.8 hPa | - | - | - | - |
| 1788144303 | 17.78° C | 60% | 1012.7 hPa | - | - | - | - |
| 1788143761 | 17.78° C | 60% | 1012.8 hPa | - | - | - | - |
| 1788143212 | 17.78° C | 60% | 1013.1 hPa | - | - | - | - |
| 1788142670 | 17.78° C | 60% | 1013.1 hPa | - | - | - | - |
* Rain since midnight (hover to see other rain measurements)
** Current wind speed in m/s (hover to see current wind gust speed)